sensor_id;sensor_type;location;lat;lon;timestamp;pressure;altitude;pressure_sealevel;temperature;humidity
24892;BME280;12954;50.688;10.908;2022-09-30T00:01:41;94766.50;;;5.79;62.33
24892;BME280;12954;50.688;10.908;2022-09-30T00:04:14;94788.69;;;5.90;62.33
24892;BME280;12954;50.688;10.908;2022-09-30T00:06:43;94792.16;;;5.90;62.36
24892;BME280;12954;50.688;10.908;2022-09-30T00:09:12;94783.63;;;5.83;62.34
24892;BME280;12954;50.688;10.908;2022-09-30T00:11:41;94788.16;;;5.88;62.56
24892;BME280;12954;50.688;10.908;2022-09-30T00:14:14;94799.38;;;5.90;62.04
24892;BME280;12954;50.688;10.908;2022-09-30T00:16:44;94765.16;;;5.67;62.19
24892;BME280;12954;50.688;10.908;2022-09-30T00:19:14;94795.66;;;5.86;62.20
24892;BME280;12954;50.688;10.908;2022-09-30T00:21:43;94791.09;;;5.81;62.23
24892;BME280;12954;50.688;10.908;2022-09-30T00:24:12;94791.91;;;5.72;62.43
24892;BME280;12954;50.688;10.908;2022-09-30T00:26:40;94774.81;;;5.63;62.39
24892;BME280;12954;50.688;10.908;2022-09-30T00:29:09;94803.69;;;5.76;62.33
24892;BME280;12954;50.688;10.908;2022-09-30T00:31:38;94795.41;;;5.77;62.45
24892;BME280;12954;50.688;10.908;2022-09-30T00:34:06;94797.81;;;5.74;62.34
24892;BME280;12954;50.688;10.908;2022-09-30T00:36:39;94755.53;;;5.45;62.54
24892;BME280;12954;50.688;10.908;2022-09-30T00:39:11;94794.06;;;5.70;62.50
24892;BME280;12954;50.688;10.908;2022-09-30T00:41:41;94796.72;;;5.70;62.29
24892;BME280;12954;50.688;10.908;2022-09-30T00:44:45;94800.47;;;5.64;62.39
24892;BME280;12954;50.688;10.908;2022-09-30T00:47:28;94805.31;;;5.56;62.43
24892;BME280;12954;50.688;10.908;2022-09-30T00:49:58;94803.69;;;5.40;62.57
24892;BME280;12954;50.688;10.908;2022-09-30T00:52:28;94796.72;;;5.39;62.63
24892;BME280;12954;50.688;10.908;2022-09-30T00:54:58;94812.78;;;5.44;62.50
24892;BME280;12954;50.688;10.908;2022-09-30T00:57:29;94809.56;;;5.42;62.46
24892;BME280;12954;50.688;10.908;2022-09-30T00:59:58;94816.00;;;5.41;62.46
24892;BME280;12954;50.688;10.908;2022-09-30T01:02:27;94814.38;;;5.40;62.34
24892;BME280;12954;50.688;10.908;2022-09-30T01:04:56;94814.13;;;5.42;62.39
24892;BME280;12954;50.688;10.908;2022-09-30T01:07:24;94811.69;;;5.40;62.50
24892;BME280;12954;50.688;10.908;2022-09-30T01:09:56;94818.13;;;5.44;62.40
24892;BME280;12954;50.688;10.908;2022-09-30T01:12:25;94809.84;;;5.46;62.01
24892;BME280;12954;50.688;10.908;2022-09-30T01:14:55;94810.66;;;5.41;62.16
24892;BME280;12954;50.688;10.908;2022-09-30T01:17:34;94819.72;;;5.40;62.13
24892;BME280;12954;50.688;10.908;2022-09-30T01:20:30;94808.75;;;5.37;62.01
24892;BME280;12954;50.688;10.908;2022-09-30T01:23:41;94807.97;;;5.36;62.20
24892;BME280;12954;50.688;10.908;2022-09-30T01:26:40;94809.28;;;5.29;62.16
24892;BME280;12954;50.688;10.908;2022-09-30T01:32:38;94811.69;;;5.25;62.48
24892;BME280;12954;50.688;10.908;2022-09-30T01:35:20;94817.03;;;5.25;62.11
24892;BME280;12954;50.688;10.908;2022-09-30T01:38:00;94813.81;;;5.23;62.41
24892;BME280;12954;50.688;10.908;2022-09-30T01:40:38;94806.59;;;5.24;62.12
24892;BME280;12954;50.688;10.908;2022-09-30T01:43:13;94807.94;;;5.26;62.21
24892;BME280;12954;50.688;10.908;2022-09-30T01:45:50;94811.16;;;5.23;62.05
24892;BME280;12954;50.688;10.908;2022-09-30T01:48:29;94810.06;;;5.19;61.86
24892;BME280;12954;50.688;10.908;2022-09-30T01:51:06;94815.94;;;5.16;61.98
24892;BME280;12954;50.688;10.908;2022-09-30T01:53:40;94830.88;;;5.02;61.91
24892;BME280;12954;50.688;10.908;2022-09-30T01:56:12;94816.94;;;4.90;62.06
24892;BME280;12954;50.688;10.908;2022-09-30T01:58:50;94818.84;;;4.99;62.05
24892;BME280;12954;50.688;10.908;2022-09-30T02:01:23;94822.56;;;4.98;62.00
24892;BME280;12954;50.688;10.908;2022-09-30T02:03:57;94826.59;;;4.96;61.90
24892;BME280;12954;50.688;10.908;2022-09-30T02:06:31;94824.97;;;4.90;62.15
24892;BME280;12954;50.688;10.908;2022-09-30T02:09:05;94826.56;;;4.91;62.12
24892;BME280;12954;50.688;10.908;2022-09-30T02:11:37;94829.25;;;4.91;62.22
24892;BME280;12954;50.688;10.908;2022-09-30T02:14:11;94823.38;;;4.94;62.16
24892;BME280;12954;50.688;10.908;2022-09-30T02:16:45;94827.63;;;4.90;62.01
24892;BME280;12954;50.688;10.908;2022-09-30T02:19:18;94827.63;;;4.85;62.23
24892;BME280;12954;50.688;10.908;2022-09-30T02:21:54;94826.53;;;4.81;62.40
24892;BME280;12954;50.688;10.908;2022-09-30T02:24:25;94825.19;;;4.78;62.37
24892;BME280;12954;50.688;10.908;2022-09-30T02:26:58;94827.31;;;4.76;62.28
24892;BME280;12954;50.688;10.908;2022-09-30T02:29:31;94825.97;;;4.74;62.31
24892;BME280;12954;50.688;10.908;2022-09-30T02:32:04;94828.06;;;4.62;62.51
24892;BME280;12954;50.688;10.908;2022-09-30T02:34:37;94838.81;;;4.72;62.27
24892;BME280;12954;50.688;10.908;2022-09-30T02:37:10;94831.84;;;4.71;61.98
24892;BME280;12954;50.688;10.908;2022-09-30T02:39:45;94840.38;;;4.68;61.89
24892;BME280;12954;50.688;10.908;2022-09-30T02:42:18;94830.97;;;4.60;62.40
24892;BME280;12954;50.688;10.908;2022-09-30T02:44:48;94829.91;;;4.56;62.47
24892;BME280;12954;50.688;10.908;2022-09-30T02:47:24;94835.53;;;4.60;62.35
24892;BME280;12954;50.688;10.908;2022-09-30T02:50:00;94837.13;;;4.61;62.49
24892;BME280;12954;50.688;10.908;2022-09-30T02:52:42;94838.22;;;4.65;62.36
24892;BME280;12954;50.688;10.908;2022-09-30T02:55:18;94840.63;;;4.66;62.20
24892;BME280;12954;50.688;10.908;2022-09-30T02:57:56;94823.75;;;4.56;62.25
24892;BME280;12954;50.688;10.908;2022-09-30T03:00:27;94839.56;;;4.62;62.32
24892;BME280;12954;50.688;10.908;2022-09-30T03:02:58;94843.00;;;4.58;62.32
24892;BME280;12954;50.688;10.908;2022-09-30T03:05:30;94846.19;;;4.55;62.09
24892;BME280;12954;50.688;10.908;2022-09-30T03:07:59;94840.31;;;4.53;62.48
24892;BME280;12954;50.688;10.908;2022-09-30T03:10:28;94846.16;;;4.50;62.21
24892;BME280;12954;50.688;10.908;2022-09-30T03:13:11;94798.19;;;4.23;62.10
24892;BME280;12954;50.688;10.908;2022-09-30T03:15:52;94846.69;;;4.52;61.95
24892;BME280;12954;50.688;10.908;2022-09-30T03:18:36;94859.78;;;4.48;62.23
24892;BME280;12954;50.688;10.908;2022-09-30T03:21:22;94844.50;;;4.33;61.89
24892;BME280;12954;50.688;10.908;2022-09-30T03:27:01;94867.44;;;4.34;62.16
24892;BME280;12954;50.688;10.908;2022-09-30T03:29:44;94873.59;;;4.35;62.17
24892;BME280;12954;50.688;10.908;2022-09-30T03:32:26;94874.94;;;4.37;62.14
24892;BME280;12954;50.688;10.908;2022-09-30T03:35:06;94864.94;;;4.23;62.05
24892;BME280;12954;50.688;10.908;2022-09-30T03:37:47;94877.06;;;4.30;61.78
24892;BME280;12954;50.688;10.908;2022-09-30T03:40:26;94874.38;;;4.30;61.80
24892;BME280;12954;50.688;10.908;2022-09-30T03:43:02;94854.22;;;4.13;61.86
24892;BME280;12954;50.688;10.908;2022-09-30T03:45:35;94885.56;;;4.27;62.19
24892;BME280;12954;50.688;10.908;2022-09-30T03:48:09;94886.59;;;4.26;62.14
24892;BME280;12954;50.688;10.908;2022-09-30T03:50:40;94885.56;;;4.27;61.93
24892;BME280;12954;50.688;10.908;2022-09-30T03:53:11;94890.41;;;4.30;61.94
24892;BME280;12954;50.688;10.908;2022-09-30T03:55:48;94890.41;;;4.30;61.66
24892;BME280;12954;50.688;10.908;2022-09-30T03:58:19;94864.63;;;4.14;61.70
24892;BME280;12954;50.688;10.908;2022-09-30T04:00:50;94894.34;;;4.28;61.55
24892;BME280;12954;50.688;10.908;2022-09-30T04:03:20;94892.75;;;4.27;61.95
24892;BME280;12954;50.688;10.908;2022-09-30T04:05:49;94894.59;;;4.26;61.80
24892;BME280;12954;50.688;10.908;2022-09-30T04:08:19;94908.28;;;4.30;61.51
24892;BME280;12954;50.688;10.908;2022-09-30T04:10:48;94901.59;;;4.27;61.69
24892;BME280;12954;50.688;10.908;2022-09-30T04:13:17;94903.66;;;4.25;61.38
24892;BME280;12954;50.688;10.908;2022-09-30T04:15:52;94908.44;;;4.18;61.58
24892;BME280;12954;50.688;10.908;2022-09-30T04:18:21;94915.59;;;4.13;61.67
24892;BME280;12954;50.688;10.908;2022-09-30T04:20:49;94905.44;;;4.10;61.76
24892;BME280;12954;50.688;10.908;2022-09-30T04:23:19;94906.22;;;4.10;61.63
24892;BME280;12954;50.688;10.908;2022-09-30T04:25:51;94908.63;;;4.12;61.71
24892;BME280;12954;50.688;10.908;2022-09-30T04:28:20;94906.22;;;4.10;61.89
24892;BME280;12954;50.688;10.908;2022-09-30T04:30:49;94907.84;;;4.11;61.64
24892;BME280;12954;50.688;10.908;2022-09-30T04:33:17;94903.00;;;4.08;61.67
24892;BME280;12954;50.688;10.908;2022-09-30T04:35:46;94904.88;;;4.08;61.88
24892;BME280;12954;50.688;10.908;2022-09-30T04:38:15;94904.09;;;4.07;61.75
24892;BME280;12954;50.688;10.908;2022-09-30T04:40:45;94913.13;;;4.06;61.69
24892;BME280;12954;50.688;10.908;2022-09-30T04:43:15;94917.94;;;4.04;61.64
24892;BME280;12954;50.688;10.908;2022-09-30T04:45:45;94920.59;;;4.04;61.83
24892;BME280;12954;50.688;10.908;2022-09-30T04:48:14;94917.94;;;4.04;61.54
24892;BME280;12954;50.688;10.908;2022-09-30T04:50:43;94919.22;;;4.02;61.77
24892;BME280;12954;50.688;10.908;2022-09-30T04:53:12;94923.22;;;3.99;61.47
24892;BME280;12954;50.688;10.908;2022-09-30T04:55:41;94918.38;;;3.96;61.87
24892;BME280;12954;50.688;10.908;2022-09-30T04:58:11;94914.91;;;3.96;61.82
24892;BME280;12954;50.688;10.908;2022-09-30T05:00:41;94855.06;;;3.55;61.87
24892;BME280;12954;50.688;10.908;2022-09-30T05:03:09;94908.53;;;3.97;61.48
24892;BME280;12954;50.688;10.908;2022-09-30T05:05:37;94916.22;;;3.93;61.69
24892;BME280;12954;50.688;10.908;2022-09-30T05:08:08;94920.47;;;3.89;61.68
24892;BME280;12954;50.688;10.908;2022-09-30T05:10:37;94927.41;;;3.90;61.69
24892;BME280;12954;50.688;10.908;2022-09-30T05:13:05;94935.97;;;3.92;61.83
24892;BME280;12954;50.688;10.908;2022-09-30T05:15:35;94933.81;;;3.89;61.54
24892;BME280;12954;50.688;10.908;2022-09-30T05:18:04;94935.88;;;3.82;61.83
24892;BME280;12954;50.688;10.908;2022-09-30T05:20:32;94919.78;;;3.72;61.98
24892;BME280;12954;50.688;10.908;2022-09-30T05:23:01;94941.72;;;3.79;62.14
24892;BME280;12954;50.688;10.908;2022-09-30T05:25:29;94941.22;;;3.82;61.77
24892;BME280;12954;50.688;10.908;2022-09-30T05:27:59;94896.66;;;3.51;61.67
24892;BME280;12954;50.688;10.908;2022-09-30T05:30:27;94939.03;;;3.79;61.83
24892;BME280;12954;50.688;10.908;2022-09-30T05:32:57;94941.47;;;3.80;61.91
24892;BME280;12954;50.688;10.908;2022-09-30T05:35:26;94938.50;;;3.77;62.14
24892;BME280;12954;50.688;10.908;2022-09-30T05:37:55;94947.59;;;3.81;61.87
24892;BME280;12954;50.688;10.908;2022-09-30T05:40:24;94938.00;;;3.80;61.91
24892;BME280;12954;50.688;10.908;2022-09-30T05:42:55;94949.22;;;3.82;62.17
24892;BME280;12954;50.688;10.908;2022-09-30T05:45:24;94953.50;;;3.83;61.92
24892;BME280;12954;50.688;10.908;2022-09-30T05:47:53;94955.09;;;3.84;62.08
24892;BME280;12954;50.688;10.908;2022-09-30T05:50:24;94913.75;;;3.55;61.82
24892;BME280;12954;50.688;10.908;2022-09-30T05:52:52;94965.88;;;3.94;62.24
24892;BME280;12954;50.688;10.908;2022-09-30T05:55:21;94968.03;;;3.97;62.26
24892;BME280;12954;50.688;10.908;2022-09-30T05:57:50;94976.34;;;4.01;62.35
24892;BME280;12954;50.688;10.908;2022-09-30T06:00:19;94980.91;;;4.05;62.07
24892;BME280;12954;50.688;10.908;2022-09-30T06:02:50;94983.88;;;4.09;61.96
24892;BME280;12954;50.688;10.908;2022-09-30T06:05:19;94984.41;;;4.11;62.08
24892;BME280;12954;50.688;10.908;2022-09-30T06:07:49;94981.25;;;4.14;61.96
24892;BME280;12954;50.688;10.908;2022-09-30T06:10:18;94986.88;;;4.17;62.33
24892;BME280;12954;50.688;10.908;2022-09-30T06:12:46;94984.25;;;4.22;62.44
24892;BME280;12954;50.688;10.908;2022-09-30T06:15:15;94986.50;;;4.30;62.23
24892;BME280;12954;50.688;10.908;2022-09-30T06:17:43;94990.25;;;4.34;62.26
24892;BME280;12954;50.688;10.908;2022-09-30T06:20:12;95000.44;;;4.37;62.45
24892;BME280;12954;50.688;10.908;2022-09-30T06:22:41;94996.75;;;4.43;62.50
24892;BME280;12954;50.688;10.908;2022-09-30T06:25:11;94999.44;;;4.49;62.42
24892;BME280;12954;50.688;10.908;2022-09-30T06:27:43;95009.63;;;4.52;62.37
24892;BME280;12954;50.688;10.908;2022-09-30T06:30:13;95004.28;;;4.52;62.48
24892;BME280;12954;50.688;10.908;2022-09-30T06:32:42;95007.25;;;4.55;62.60
24892;BME280;12954;50.688;10.908;2022-09-30T06:35:11;95013.44;;;4.61;62.89
24892;BME280;12954;50.688;10.908;2022-09-30T06:37:39;95000.47;;;4.42;62.74
24892;BME280;12954;50.688;10.908;2022-09-30T06:40:08;95016.94;;;4.66;62.71
24892;BME280;12954;50.688;10.908;2022-09-30T06:42:38;95020.47;;;4.72;62.98
24892;BME280;12954;50.688;10.908;2022-09-30T06:45:08;95027.72;;;4.76;62.65
24892;BME280;12954;50.688;10.908;2022-09-30T06:47:49;95031.22;;;4.82;62.80
24892;BME280;12954;50.688;10.908;2022-09-30T06:50:26;95031.25;;;4.87;62.84
24892;BME280;12954;50.688;10.908;2022-09-30T06:52:56;95037.72;;;4.96;62.89
24892;BME280;12954;50.688;10.908;2022-09-30T06:55:25;94993.19;;;4.70;63.01
24892;BME280;12954;50.688;10.908;2022-09-30T06:57:55;95043.13;;;5.06;62.71
24892;BME280;12954;50.688;10.908;2022-09-30T07:00:25;95038.34;;;5.13;62.87
24892;BME280;12954;50.688;10.908;2022-09-30T07:02:54;95048.00;;;5.19;63.16
24892;BME280;12954;50.688;10.908;2022-09-30T07:05:24;94991.66;;;4.84;62.99
24892;BME280;12954;50.688;10.908;2022-09-30T07:07:53;95053.72;;;5.33;63.19
24892;BME280;12954;50.688;10.908;2022-09-30T07:10:22;95055.09;;;5.40;63.31
24892;BME280;12954;50.688;10.908;2022-09-30T07:12:51;95063.13;;;5.45;63.48
24892;BME280;12954;50.688;10.908;2022-09-30T07:15:21;95067.19;;;5.53;63.40
24892;BME280;12954;50.688;10.908;2022-09-30T07:17:50;95071.22;;;5.61;63.62
24892;BME280;12954;50.688;10.908;2022-09-30T07:20:19;95069.38;;;5.66;63.61
24892;BME280;12954;50.688;10.908;2022-09-30T07:22:48;95068.09;;;5.74;63.68
24892;BME280;12954;50.688;10.908;2022-09-30T07:25:17;95073.44;;;5.79;63.93
24892;BME280;12954;50.688;10.908;2022-09-30T07:27:46;95057.41;;;5.79;63.97
24892;BME280;12954;50.688;10.908;2022-09-30T07:30:14;95071.13;;;5.97;64.15
24892;BME280;12954;50.688;10.908;2022-09-30T07:32:54;95071.41;;;6.11;63.69
24892;BME280;12954;50.688;10.908;2022-09-30T07:35:22;95076.84;;;6.21;63.47
24892;BME280;12954;50.688;10.908;2022-09-30T07:37:51;95079.53;;;6.31;63.56
24892;BME280;12954;50.688;10.908;2022-09-30T07:40:19;95041.47;;;6.19;63.16
24892;BME280;12954;50.688;10.908;2022-09-30T07:42:48;95084.38;;;6.54;63.23
24892;BME280;12954;50.688;10.908;2022-09-30T07:45:16;95057.56;;;6.39;63.13
24892;BME280;12954;50.688;10.908;2022-09-30T07:47:45;95086.81;;;6.71;62.70
24892;BME280;12954;50.688;10.908;2022-09-30T07:50:21;95087.63;;;6.82;62.29
24892;BME280;12954;50.688;10.908;2022-09-30T07:52:51;95088.69;;;6.91;62.51
24892;BME280;12954;50.688;10.908;2022-09-30T07:55:21;95091.91;;;6.98;62.18
24892;BME280;12954;50.688;10.908;2022-09-30T07:57:50;95097.25;;;7.08;61.92
24892;BME280;12954;50.688;10.908;2022-09-30T08:00:18;95103.69;;;7.17;61.65
24892;BME280;12954;50.688;10.908;2022-09-30T08:03:07;95106.91;;;7.24;61.20
24892;BME280;12954;50.688;10.908;2022-09-30T08:05:39;95113.31;;;7.33;60.77
24892;BME280;12954;50.688;10.908;2022-09-30T08:08:11;95114.41;;;7.37;60.65
24892;BME280;12954;50.688;10.908;2022-09-30T08:10:39;95113.31;;;7.43;60.59
24892;BME280;12954;50.688;10.908;2022-09-30T08:13:08;95071.50;;;7.22;60.07
24892;BME280;12954;50.688;10.908;2022-09-30T08:15:39;95117.56;;;7.54;59.97
24892;BME280;12954;50.688;10.908;2022-09-30T08:18:08;95119.47;;;7.59;59.60
24892;BME280;12954;50.688;10.908;2022-09-30T08:20:36;95113.25;;;7.63;59.45
24892;BME280;12954;50.688;10.908;2022-09-30T08:23:06;95033.44;;;7.15;59.45
24892;BME280;12954;50.688;10.908;2022-09-30T08:25:34;95115.41;;;7.71;59.08
24892;BME280;12954;50.688;10.908;2022-09-30T08:28:03;95118.38;;;7.75;58.91
24892;BME280;12954;50.688;10.908;2022-09-30T08:30:33;95117.56;;;7.79;58.58
24892;BME280;12954;50.688;10.908;2022-09-30T08:33:02;95119.16;;;7.86;58.53
24892;BME280;12954;50.688;10.908;2022-09-30T08:35:33;95118.06;;;7.92;57.90
24892;BME280;12954;50.688;10.908;2022-09-30T08:38:02;95128.78;;;7.97;57.60
24892;BME280;12954;50.688;10.908;2022-09-30T08:40:36;95134.13;;;8.02;57.40
24892;BME280;12954;50.688;10.908;2022-09-30T08:43:23;95131.41;;;8.07;57.24
24892;BME280;12954;50.688;10.908;2022-09-30T08:46:01;95127.38;;;8.14;57.16
24892;BME280;12954;50.688;10.908;2022-09-30T08:48:44;95132.44;;;8.21;56.76
24892;BME280;12954;50.688;10.908;2022-09-30T08:51:28;95124.63;;;8.24;56.46
24892;BME280;12954;50.688;10.908;2022-09-30T08:53:59;95134.56;;;8.29;56.34
24892;BME280;12954;50.688;10.908;2022-09-30T08:56:32;95124.28;;;8.36;56.30
24892;BME280;12954;50.688;10.908;2022-09-30T08:59:04;95131.25;;;8.47;56.49
24892;BME280;12954;50.688;10.908;2022-09-30T09:01:36;95136.34;;;8.44;56.83
24892;BME280;12954;50.688;10.908;2022-09-30T09:04:07;95144.66;;;8.52;56.50
24892;BME280;12954;50.688;10.908;2022-09-30T09:06:44;95140.59;;;8.55;56.12
24892;BME280;12954;50.688;10.908;2022-09-30T09:09:37;95137.09;;;8.59;55.59
24892;BME280;12954;50.688;10.908;2022-09-30T09:12:22;95134.41;;;8.59;55.78
24892;BME280;12954;50.688;10.908;2022-09-30T09:15:17;95145.13;;;8.64;55.64
24892;BME280;12954;50.688;10.908;2022-09-30T09:18:10;95103.56;;;8.47;55.31
24892;BME280;12954;50.688;10.908;2022-09-30T09:20:54;95140.69;;;8.83;55.14
24892;BME280;12954;50.688;10.908;2022-09-30T09:23:24;95137.69;;;8.90;54.88
24892;BME280;12954;50.688;10.908;2022-09-30T09:25:54;95122.06;;;8.92;54.36
24892;BME280;12954;50.688;10.908;2022-09-30T09:28:32;95126.00;;;9.10;53.68
24892;BME280;12954;50.688;10.908;2022-09-30T09:31:06;95133.00;;;9.06;53.84
24892;BME280;12954;50.688;10.908;2022-09-30T09:33:37;95125.41;;;9.18;53.48
24892;BME280;12954;50.688;10.908;2022-09-30T09:36:16;95124.31;;;9.19;53.28
24892;BME280;12954;50.688;10.908;2022-09-30T09:38:57;95130.22;;;9.21;53.62
24892;BME280;12954;50.688;10.908;2022-09-30T09:41:39;95130.41;;;9.29;53.83
24892;BME280;12954;50.688;10.908;2022-09-30T09:44:20;95126.59;;;9.35;53.86
24892;BME280;12954;50.688;10.908;2022-09-30T09:46:53;95129.19;;;9.45;53.02
24892;BME280;12954;50.688;10.908;2022-09-30T09:49:33;95125.97;;;9.43;52.69
24892;BME280;12954;50.688;10.908;2022-09-30T09:52:25;95128.91;;;9.47;53.06
24892;BME280;12954;50.688;10.908;2022-09-30T09:54:58;95108.03;;;9.34;53.22
24892;BME280;12954;50.688;10.908;2022-09-30T09:57:27;95131.91;;;9.69;52.69
24892;BME280;12954;50.688;10.908;2022-09-30T10:00:01;95093.84;;;9.52;52.35
24892;BME280;12954;50.688;10.908;2022-09-30T10:02:58;95128.16;;;9.70;52.48
24892;BME280;12954;50.688;10.908;2022-09-30T10:05:28;95123.31;;;9.67;52.83
24892;BME280;12954;50.688;10.908;2022-09-30T10:08:11;95129.47;;;9.73;52.49
24892;BME280;12954;50.688;10.908;2022-09-30T10:10:44;95119.44;;;9.78;52.46
24892;BME280;12954;50.688;10.908;2022-09-30T10:13:18;95127.63;;;9.92;52.15
24892;BME280;12954;50.688;10.908;2022-09-30T10:15:50;95128.91;;;9.99;51.90
24892;BME280;12954;50.688;10.908;2022-09-30T10:18:23;95071.44;;;9.80;51.55
24892;BME280;12954;50.688;10.908;2022-09-30T10:20:55;95113.06;;;10.17;51.71
24892;BME280;12954;50.688;10.908;2022-09-30T10:23:26;95109.66;;;10.30;51.30
24892;BME280;12954;50.688;10.908;2022-09-30T10:26:01;95100.16;;;10.37;50.37
24892;BME280;12954;50.688;10.908;2022-09-30T10:28:33;95114.75;;;10.55;50.39
24892;BME280;12954;50.688;10.908;2022-09-30T10:31:10;95105.91;;;10.68;50.04
24892;BME280;12954;50.688;10.908;2022-09-30T10:33:42;95112.22;;;10.82;50.00
24892;BME280;12954;50.688;10.908;2022-09-30T10:36:15;95084.78;;;10.75;50.03
24892;BME280;12954;50.688;10.908;2022-09-30T10:38:54;95099.81;;;11.00;49.68
24892;BME280;12954;50.688;10.908;2022-09-30T10:41:33;95087.09;;;11.00;49.36
24892;BME280;12954;50.688;10.908;2022-09-30T10:44:05;95113.50;;;11.36;48.65
24892;BME280;12954;50.688;10.908;2022-09-30T10:46:38;95116.03;;;11.46;48.36
24892;BME280;12954;50.688;10.908;2022-09-30T10:49:10;95110.47;;;11.56;47.39
24892;BME280;12954;50.688;10.908;2022-09-30T10:51:39;95107.50;;;11.57;47.40
24892;BME280;12954;50.688;10.908;2022-09-30T10:54:44;95077.88;;;11.52;45.28
24892;BME280;12954;50.688;10.908;2022-09-30T10:57:14;95087.91;;;11.79;45.65
24892;BME280;12954;50.688;10.908;2022-09-30T10:59:44;95093.13;;;11.89;45.44
24892;BME280;12954;50.688;10.908;2022-09-30T11:02:26;95103.91;;;12.03;44.73
24892;BME280;12954;50.688;10.908;2022-09-30T11:05:06;95098.22;;;12.04;44.72
24892;BME280;12954;50.688;10.908;2022-09-30T11:07:43;95102.31;;;12.15;43.94
24892;BME280;12954;50.688;10.908;2022-09-30T11:10:26;95102.72;;;12.22;43.67
24892;BME280;12954;50.688;10.908;2022-09-30T11:13:04;95107.44;;;12.31;43.01
24892;BME280;12954;50.688;10.908;2022-09-30T11:15:41;95100.81;;;12.37;41.27
24892;BME280;12954;50.688;10.908;2022-09-30T11:18:17;95108.31;;;12.40;41.47
24892;BME280;12954;50.688;10.908;2022-09-30T11:20:53;95110.44;;;12.43;42.00
24892;BME280;12954;50.688;10.908;2022-09-30T11:23:27;95111.44;;;12.47;42.10
24892;BME280;12954;50.688;10.908;2022-09-30T11:26:02;95117.66;;;12.61;41.02
24892;BME280;12954;50.688;10.908;2022-09-30T11:28:51;95070.66;;;12.30;41.06
24892;BME280;12954;50.688;10.908;2022-09-30T11:31:29;95115.34;;;12.54;41.76
24892;BME280;12954;50.688;10.908;2022-09-30T11:34:14;95110.81;;;12.63;41.50
24892;BME280;12954;50.688;10.908;2022-09-30T11:36:49;95107.72;;;12.70;41.86
24892;BME280;12954;50.688;10.908;2022-09-30T11:42:32;95114.50;;;12.81;41.44
24892;BME280;12954;50.688;10.908;2022-09-30T11:45:12;95106.84;;;12.83;41.36
24892;BME280;12954;50.688;10.908;2022-09-30T11:47:57;95111.47;;;12.83;41.43
24892;BME280;12954;50.688;10.908;2022-09-30T11:50:49;95107.59;;;12.97;41.07
24892;BME280;12954;50.688;10.908;2022-09-30T11:53:27;95109.22;;;12.98;41.63
24892;BME280;12954;50.688;10.908;2022-09-30T11:56:29;95105.53;;;13.16;41.09
24892;BME280;12954;50.688;10.908;2022-09-30T11:59:03;95095.06;;;13.23;40.81
24892;BME280;12954;50.688;10.908;2022-09-30T12:01:38;95107.84;;;13.54;40.14
24892;BME280;12954;50.688;10.908;2022-09-30T12:04:13;95122.16;;;13.68;40.08
24892;BME280;12954;50.688;10.908;2022-09-30T12:06:48;95114.72;;;13.82;38.68
24892;BME280;12954;50.688;10.908;2022-09-30T12:09:22;95124.84;;;13.90;38.96
24892;BME280;12954;50.688;10.908;2022-09-30T12:11:55;95125.81;;;13.94;39.24
24892;BME280;12954;50.688;10.908;2022-09-30T12:14:30;95121.03;;;14.00;39.16
24892;BME280;12954;50.688;10.908;2022-09-30T12:17:06;95060.47;;;13.73;39.44
24892;BME280;12954;50.688;10.908;2022-09-30T12:19:43;95117.25;;;14.09;39.51
24892;BME280;12954;50.688;10.908;2022-09-30T12:22:17;95114.56;;;14.18;39.83
24892;BME280;12954;50.688;10.908;2022-09-30T12:24:47;95127.53;;;14.29;39.70
24892;BME280;12954;50.688;10.908;2022-09-30T12:27:19;95114.31;;;14.28;39.39
24892;BME280;12954;50.688;10.908;2022-09-30T12:29:57;95129.50;;;14.37;38.92
24892;BME280;12954;50.688;10.908;2022-09-30T12:36:04;95131.06;;;13.90;39.34
24892;BME280;12954;50.688;10.908;2022-09-30T12:38:52;95136.41;;;13.82;38.92
24892;BME280;12954;50.688;10.908;2022-09-30T12:41:41;95112.31;;;13.72;38.72
24892;BME280;12954;50.688;10.908;2022-09-30T12:44:37;95139.31;;;13.85;39.06
24892;BME280;12954;50.688;10.908;2022-09-30T12:47:21;95143.41;;;13.74;38.11
24892;BME280;12954;50.688;10.908;2022-09-30T12:49:56;95141.13;;;13.46;38.57
24892;BME280;12954;50.688;10.908;2022-09-30T12:52:30;95146.50;;;13.37;39.21
24892;BME280;12954;50.688;10.908;2022-09-30T12:55:05;95142.72;;;13.47;38.79
24892;BME280;12954;50.688;10.908;2022-09-30T12:57:39;95140.31;;;13.45;38.71
24892;BME280;12954;50.688;10.908;2022-09-30T13:00:13;95140.41;;;13.31;39.19
24892;BME280;12954;50.688;10.908;2022-09-30T13:02:43;95139.03;;;13.43;39.53
24892;BME280;12954;50.688;10.908;2022-09-30T13:05:51;95139.97;;;13.60;39.77
24892;BME280;12954;50.688;10.908;2022-09-30T13:08:43;95134.38;;;13.57;39.35
24892;BME280;12954;50.688;10.908;2022-09-30T13:11:32;95137.88;;;13.57;39.61
24892;BME280;12954;50.688;10.908;2022-09-30T13:14:29;95139.50;;;13.58;39.80
24892;BME280;12954;50.688;10.908;2022-09-30T13:17:24;95136.50;;;13.68;39.64
24892;BME280;12954;50.688;10.908;2022-09-30T13:19:53;95136.31;;;13.65;39.62
24892;BME280;12954;50.688;10.908;2022-09-30T13:22:53;95138.75;;;13.66;39.26
24892;BME280;12954;50.688;10.908;2022-09-30T13:25:21;95140.28;;;13.59;39.62
24892;BME280;12954;50.688;10.908;2022-09-30T13:27:52;95143.31;;;13.57;39.46
24892;BME280;12954;50.688;10.908;2022-09-30T13:30:38;95140.78;;;13.61;39.13
24892;BME280;12954;50.688;10.908;2022-09-30T13:33:28;95149.59;;;13.53;39.63
24892;BME280;12954;50.688;10.908;2022-09-30T13:36:05;95140.19;;;13.50;39.58
24892;BME280;12954;50.688;10.908;2022-09-30T13:38:38;95143.66;;;13.42;39.70
24892;BME280;12954;50.688;10.908;2022-09-30T13:41:15;95123.75;;;13.24;39.55
24892;BME280;12954;50.688;10.908;2022-09-30T13:43:49;95148.50;;;13.54;39.27
24892;BME280;12954;50.688;10.908;2022-09-30T13:46:30;95142.97;;;13.59;38.44
24892;BME280;12954;50.688;10.908;2022-09-30T13:49:11;95151.97;;;13.46;38.77